Time;durP1;ratioP1;P1;durP2;ratioP2;P2;SDS_P1;SDS_P2;PMS_P1;PMS_P2;Temp;Humidity;BMP_temperature;BMP_pressure;BME280_temperature;BME280_humidity;BME280_pressure;Samples;Min_cycle;Max_cycle;Signal;HPM_P1;HPM_P2
2023/06/19 00:01:45;;;;;;;7.43;5.38;;;;;;;24.80;44.80;100721.16;4987615;28;124164;-62
2023/06/19 00:04:13;;;;;;;5.65;5.05;;;;;;;24.83;44.96;100720.84;4991462;28;123938;-61
2023/06/19 00:06:40;;;;;;;8.05;5.43;;;;;;;24.86;45.08;100725.91;4974247;28;113790;-62
2023/06/19 00:09:07;;;;;;;5.97;5.10;;;;;;;24.90;44.99;100738.09;4990651;28;114356;-62
2023/06/19 00:11:34;;;;;;;6.22;5.30;;;;;;;24.92;44.84;100736.09;4988798;28;124131;-62
2023/06/19 00:14:02;;;;;;;7.25;5.13;;;;;;;24.96;44.86;100742.88;4990357;28;124275;-62
2023/06/19 00:16:31;;;;;;;6.38;5.00;;;;;;;24.99;44.97;100737.13;4989516;28;114101;-62
2023/06/19 00:18:58;;;;;;;6.60;4.85;;;;;;;25.02;44.98;100747.63;5003140;28;114556;-62
2023/06/19 00:21:26;;;;;;;6.55;5.40;;;;;;;25.04;45.03;100742.91;4982711;28;124635;-62
2023/06/19 00:23:53;;;;;;;7.20;5.05;;;;;;;25.09;44.95;100746.97;4981175;28;124341;-62
2023/06/19 00:26:22;;;;;;;8.55;5.15;;;;;;;25.10;44.89;100754.94;4976951;28;114268;-62
2023/06/19 00:28:49;;;;;;;8.32;5.40;;;;;;;25.13;45.00;100749.19;4981709;28;114065;-63
2023/06/19 00:31:18;;;;;;;7.45;5.07;;;;;;;25.16;44.95;100753.41;4970924;28;123567;-62
2023/06/19 00:33:50;;;;;;;7.68;5.40;;;;;;;25.19;44.93;100769.38;4984808;28;124527;-63
2023/06/19 00:36:21;;;;;;;7.82;5.03;;;;;;;25.22;45.00;100771.72;4957819;28;115023;-63
2023/06/19 00:38:48;;;;;;;6.68;5.20;;;;;;;25.24;44.78;100770.59;4990304;28;115553;-63
2023/06/19 00:41:16;;;;;;;10.13;5.35;;;;;;;25.29;44.69;100775.50;4990324;28;124387;-63
2023/06/19 00:43:44;;;;;;;7.20;4.95;;;;;;;25.30;44.63;100781.75;4971567;28;122835;-63
2023/06/19 00:46:11;;;;;;;6.38;5.22;;;;;;;25.32;44.67;100783.31;4977811;28;114727;-62
2023/06/19 00:48:39;;;;;;;8.73;4.95;;;;;;;25.33;44.74;100787.69;4974002;28;113620;-62
2023/06/19 00:51:07;;;;;;;6.22;5.05;;;;;;;25.35;44.56;100785.66;4987176;28;124744;-62
2023/06/19 00:53:35;;;;;;;5.40;4.85;;;;;;;25.36;44.43;100791.97;4967282;28;123076;-62
2023/06/19 00:56:03;;;;;;;7.40;5.25;;;;;;;25.38;44.47;100796.19;4974149;28;113082;-63
2023/06/19 00:58:32;;;;;;;7.13;5.15;;;;;;;25.38;44.64;100793.47;4983673;28;114305;-63
2023/06/19 01:00:59;;;;;;;8.30;5.15;;;;;;;25.38;44.46;100796.19;4973109;28;123302;-63
2023/06/19 01:03:37;;;;;;;6.38;5.30;;;;;;;25.39;44.17;100792.47;4972263;28;123874;-62
2023/06/19 01:06:14;;;;;;;8.10;5.30;;;;;;;25.39;44.42;100797.91;4988450;28;114421;-62
2023/06/19 01:09:10;;;;;;;6.65;5.43;;;;;;;25.38;44.37;100790.75;4977500;28;114655;-63
2023/06/19 01:11:44;;;;;;;6.53;5.32;;;;;;;25.38;44.50;100796.19;4980615;28;125063;-63
2023/06/19 01:14:19;;;;;;;8.45;5.32;;;;;;;25.37;44.42;100799.06;4989325;28;125278;-63
2023/06/19 01:16:47;;;;;;;8.73;5.20;;;;;;;25.36;44.41;100803.66;4974375;28;113603;-63
2023/06/19 01:19:21;;;;;;;6.15;5.10;;;;;;;25.34;44.43;100802.13;4962323;28;112743;-62
2023/06/19 01:21:50;;;;;;;5.95;5.10;;;;;;;25.31;43.99;100800.56;4980309;28;122867;-63
2023/06/19 01:24:17;;;;;;;6.32;5.43;;;;;;;25.29;44.12;100802.59;4977492;28;123106;-63
2023/06/19 01:26:45;;;;;;;6.18;5.30;;;;;;;25.25;44.22;100802.09;4988275;28;115549;-63
2023/06/19 01:29:16;;;;;;;7.32;5.03;;;;;;;25.25;44.42;100806.66;4974117;28;114229;-63
2023/06/19 01:31:59;;;;;;;6.80;5.30;;;;;;;25.21;44.40;100805.28;4978140;28;124362;-63
2023/06/19 01:34:30;;;;;;;6.85;4.80;;;;;;;25.18;44.39;100800.19;4989384;28;124049;-63
2023/06/19 01:36:59;;;;;;;7.28;4.70;;;;;;;25.15;44.05;100805.94;4974063;28;113564;-63
2023/06/19 01:39:26;;;;;;;9.18;4.80;;;;;;;25.10;43.99;100802.88;4988820;28;113971;-63
2023/06/19 01:41:55;;;;;;;6.03;4.35;;;;;;;25.06;44.15;100805.91;4981042;28;123853;-63
2023/06/19 01:44:22;;;;;;;7.18;3.92;;;;;;;25.04;44.46;100802.53;4973201;28;124207;-63
2023/06/19 01:46:50;;;;;;;6.72;3.60;;;;;;;25.01;44.60;100802.84;4987975;28;114302;-63
2023/06/19 01:49:18;;;;;;;8.18;3.72;;;;;;;24.99;44.57;100813.00;4990088;28;113797;-63
2023/06/19 01:51:46;;;;;;;5.32;3.63;;;;;;;24.96;44.88;100812.47;4973518;28;123727;-63
2023/06/19 01:54:13;;;;;;;8.68;3.70;;;;;;;24.91;44.96;100821.09;4978144;28;123163;-63
2023/06/19 01:56:40;;;;;;;7.10;3.63;;;;;;;24.87;45.00;100825.16;4988302;28;114806;-63
2023/06/19 01:59:08;;;;;;;4.82;3.67;;;;;;;24.82;45.13;100827.50;4973525;28;113242;-62
2023/06/19 02:01:35;;;;;;;4.72;3.75;;;;;;;24.79;45.15;100823.25;4984250;28;123732;-62
2023/06/19 02:04:04;;;;;;;4.78;3.78;;;;;;;24.76;45.03;100830.88;4988976;28;124723;-62
2023/06/19 02:06:31;;;;;;;6.20;3.83;;;;;;;24.72;45.08;100824.91;4987620;28;114512;-62
2023/06/19 02:08:58;;;;;;;5.63;3.90;;;;;;;24.70;45.20;100839.66;4973549;28;113132;-62
2023/06/19 02:11:26;;;;;;;5.45;4.13;;;;;;;24.64;45.54;100830.31;4972539;28;123066;-62
2023/06/19 02:13:54;;;;;;;7.30;4.38;;;;;;;24.59;45.60;100838.91;4987643;28;124668;-62
2023/06/19 02:16:21;;;;;;;8.63;4.25;;;;;;;24.54;45.65;100841.22;4972427;28;114414;-62
2023/06/19 02:18:48;;;;;;;8.80;4.75;;;;;;;24.47;45.76;100842.88;4972944;28;114747;-62
2023/06/19 02:21:16;;;;;;;5.13;4.00;;;;;;;24.41;46.04;100846.19;4985177;28;124723;-61
2023/06/19 02:23:43;;;;;;;5.13;4.20;;;;;;;24.33;46.02;100859.69;4992294;28;124385;-62
2023/06/19 02:26:10;;;;;;;5.53;4.15;;;;;;;24.26;46.21;100860.31;4978622;28;113746;-62
2023/06/19 02:28:38;;;;;;;8.32;4.28;;;;;;;24.19;46.38;100859.25;4980508;28;113096;-62
2023/06/19 02:31:05;;;;;;;4.75;3.70;;;;;;;24.12;46.60;100869.00;4972337;28;123435;-61
2023/06/19 02:33:33;;;;;;;6.22;3.90;;;;;;;24.05;46.94;100873.34;4970746;28;122884;-62
2023/06/19 02:36:00;;;;;;;5.43;3.30;;;;;;;23.99;47.17;100879.38;4989898;28;114568;-62
2023/06/19 02:38:29;;;;;;;4.82;3.38;;;;;;;23.90;47.24;100876.63;4986273;28;114912;-63
2023/06/19 02:41:01;;;;;;;5.70;3.58;;;;;;;23.83;47.39;100875.53;4976987;28;122973;-63
2023/06/19 02:43:29;;;;;;;5.13;3.60;;;;;;;23.79;47.52;100882.25;4971301;28;123977;-62
2023/06/19 02:45:56;;;;;;;5.75;3.88;;;;;;;23.74;47.92;100889.94;4999188;28;114608;-63
2023/06/19 02:48:24;;;;;;;5.82;3.80;;;;;;;23.73;47.89;100880.13;4998770;28;114414;-62
2023/06/19 02:50:51;;;;;;;6.05;3.30;;;;;;;23.71;48.07;100890.25;4979696;28;124083;-62
2023/06/19 02:53:18;;;;;;;7.05;3.67;;;;;;;23.68;48.15;100887.88;4970573;28;123931;-62
2023/06/19 02:55:45;;;;;;;5.03;3.05;;;;;;;23.65;48.26;100882.75;4986334;28;114451;-62
2023/06/19 02:58:13;;;;;;;4.75;3.42;;;;;;;23.63;48.38;100890.16;4972090;28;113098;-63
2023/06/19 03:00:40;;;;;;;5.13;3.20;;;;;;;23.59;48.46;100894.19;4972338;28;123850;-63
2023/06/19 03:03:08;;;;;;;7.55;3.15;;;;;;;23.56;48.54;100905.28;4991391;28;96812;-63
2023/06/19 03:05:35;;;;;;;6.30;3.10;;;;;;;23.51;48.67;100903.06;4973085;28;114858;-62
2023/06/19 03:08:03;;;;;;;7.07;2.72;;;;;;;23.47;48.94;100902.50;4974227;28;114006;-63
2023/06/19 03:10:31;;;;;;;5.85;2.92;;;;;;;23.45;48.88;100898.25;4975524;28;123340;-62
2023/06/19 03:12:58;;;;;;;4.97;3.00;;;;;;;23.43;49.14;100901.13;4974000;28;123695;-62
2023/06/19 03:15:26;;;;;;;5.05;3.20;;;;;;;23.41;49.10;100900.41;4974347;28;113703;-62
2023/06/19 03:17:53;;;;;;;5.93;3.05;;;;;;;23.40;49.06;100903.28;4973853;28;113144;-63
2023/06/19 03:20:23;;;;;;;4.28;3.00;;;;;;;23.38;49.17;100902.56;4974290;28;124211;-62
2023/06/19 03:22:55;;;;;;;4.88;3.00;;;;;;;23.35;49.18;100898.31;4974204;28;122984;-62
2023/06/19 03:25:24;;;;;;;5.93;2.85;;;;;;;23.33;49.30;100903.84;4986309;28;113386;-61
2023/06/19 03:27:52;;;;;;;4.35;2.97;;;;;;;23.31;49.31;100903.16;4980820;28;112850;-61
2023/06/19 03:30:20;;;;;;;5.55;3.30;;;;;;;23.30;49.49;100906.00;4997202;28;124430;-61
2023/06/19 03:32:50;;;;;;;4.68;3.20;;;;;;;23.28;49.48;100902.59;4985188;28;123238;-61
2023/06/19 03:35:40;;;;;;;4.60;3.25;;;;;;;23.24;49.55;100906.63;4976515;28;114423;-61
2023/06/19 03:38:13;;;;;;;10.05;3.10;;;;;;;23.21;49.69;100912.34;4975002;28;113210;-61
2023/06/19 03:40:42;;;;;;;5.05;3.28;;;;;;;23.19;49.69;100908.91;4985878;28;123355;-61
2023/06/19 03:43:11;;;;;;;5.93;3.28;;;;;;;23.16;49.90;100914.63;4974727;28;123931;-61
2023/06/19 03:45:39;;;;;;;4.97;3.22;;;;;;;23.14;49.89;100917.47;4974140;28;113845;-61
2023/06/19 03:48:06;;;;;;;4.55;2.78;;;;;;;23.11;50.10;100928.56;4973815;28;113780;-61
2023/06/19 03:50:34;;;;;;;4.03;3.30;;;;;;;23.08;50.10;100924.31;4988187;28;124286;-62
2023/06/19 03:53:01;;;;;;;6.78;3.40;;;;;;;23.05;50.35;100924.63;4972654;28;123117;-62
2023/06/19 03:55:29;;;;;;;4.03;3.28;;;;;;;23.03;50.34;100921.22;4973636;28;114609;-62
2023/06/19 03:57:56;;;;;;;4.28;3.38;;;;;;;23.01;50.33;100931.28;4972323;28;113752;-61
2023/06/19 04:00:23;;;;;;;4.43;3.05;;;;;;;22.99;50.43;100930.59;4982157;28;123222;-62
2023/06/19 04:02:51;;;;;;;4.80;3.20;;;;;;;22.94;50.59;100938.28;4994148;28;123558;-62
2023/06/19 04:05:19;;;;;;;5.38;3.50;;;;;;;22.90;50.68;100942.28;4974283;28;113553;-62
2023/06/19 04:07:47;;;;;;;5.50;3.63;;;;;;;22.88;51.03;100949.66;4969210;28;114116;-62
2023/06/19 04:10:14;;;;;;;4.82;3.47;;;;;;;22.85;51.09;100949.94;4974317;28;123802;-62
2023/06/19 04:12:42;;;;;;;5.45;2.92;;;;;;;22.85;51.25;100949.94;4974504;28;122832;-62
2023/06/19 04:15:09;;;;;;;6.70;3.58;;;;;;;22.86;51.38;100951.66;4974476;28;113410;-62
2023/06/19 04:17:37;;;;;;;5.30;3.45;;;;;;;22.88;51.54;100957.78;4969878;28;113427;-64
2023/06/19 04:20:11;;;;;;;7.60;3.70;;;;;;;22.90;51.52;100953.06;4973254;28;123219;-62
2023/06/19 04:22:42;;;;;;;4.88;3.65;;;;;;;22.90;51.53;100963.88;4989476;28;124756;-62
2023/06/19 04:25:13;;;;;;;5.13;3.50;;;;;;;22.91;51.58;100960.19;4973333;28;114281;-63
2023/06/19 04:27:40;;;;;;;5.53;3.22;;;;;;;22.95;51.71;100961.59;4988775;28;114073;-62
2023/06/19 04:30:08;;;;;;;5.20;3.70;;;;;;;22.98;51.89;100965.84;4971861;28;124060;-61
2023/06/19 04:32:35;;;;;;;5.05;3.63;;;;;;;23.01;51.83;100968.25;4989645;28;123620;-61
2023/06/19 04:35:03;;;;;;;6.13;3.80;;;;;;;23.04;52.02;100970.72;4991891;28;114202;-61
2023/06/19 04:37:30;;;;;;;5.47;3.70;;;;;;;23.06;52.00;100974.97;4986115;28;113982;-61
2023/06/19 04:39:57;;;;;;;6.78;3.65;;;;;;;23.06;52.04;100969.56;4986702;28;124385;-61
2023/06/19 04:42:26;;;;;;;4.85;3.70;;;;;;;23.07;52.20;100971.25;4990461;28;123719;-61
2023/06/19 04:44:55;;;;;;;6.78;3.90;;;;;;;23.08;52.18;100983.75;4993898;28;115317;-62
2023/06/19 04:47:23;;;;;;;6.72;3.97;;;;;;;23.09;52.23;100990.88;4997797;28;115066;-63
2023/06/19 04:49:56;;;;;;;6.38;3.53;;;;;;;23.09;52.20;100984.59;4987301;28;124047;-63
2023/06/19 04:52:24;;;;;;;5.60;3.58;;;;;;;23.10;52.33;100992.56;4986084;28;124052;-63
2023/06/19 04:54:51;;;;;;;5.40;3.33;;;;;;;23.12;52.57;100990.56;4988477;28;114194;-63
2023/06/19 04:57:18;;;;;;;5.07;3.70;;;;;;;23.15;52.68;100988.56;4987973;28;113930;-63
2023/06/19 04:59:45;;;;;;;5.57;4.03;;;;;;;23.17;52.63;100989.28;4984885;28;123939;-63
2023/06/19 05:02:13;;;;;;;7.22;3.88;;;;;;;23.21;52.72;100988.00;4977852;28;124192;-61
2023/06/19 05:04:42;;;;;;;5.68;4.07;;;;;;;23.23;52.81;100986.84;4991234;28;114842;-62
2023/06/19 05:07:12;;;;;;;6.82;3.83;;;;;;;23.25;52.73;100989.41;4973173;28;114399;-63
2023/06/19 05:09:39;;;;;;;6.43;3.85;;;;;;;23.28;52.79;100997.19;4988295;28;124091;-63
2023/06/19 05:12:07;;;;;;;6.63;4.15;;;;;;;23.30;52.80;100992.50;4988735;28;124586;-63
2023/06/19 05:14:34;;;;;;;4.93;3.78;;;;;;;23.31;52.88;100988.81;4993339;28;114849;-62
2023/06/19 05:17:01;;;;;;;5.13;3.95;;;;;;;23.32;53.02;100995.94;4996833;28;114047;-64
2023/06/19 05:19:29;;;;;;;8.82;4.10;;;;;;;23.33;53.01;100997.63;4986640;28;124083;-62
2023/06/19 05:21:56;;;;;;;5.63;3.85;;;;;;;23.35;52.94;101001.00;4981296;28;123754;-62
2023/06/19 05:24:23;;;;;;;5.55;4.00;;;;;;;23.36;53.04;101008.13;4996307;28;114746;-62
2023/06/19 05:26:51;;;;;;;7.53;4.10;;;;;;;23.38;53.09;101006.13;4993378;28;113357;-62
2023/06/19 05:29:18;;;;;;;5.43;3.88;;;;;;;23.40;53.14;101009.53;5002171;28;124428;-62
2023/06/19 05:31:45;;;;;;;6.82;4.40;;;;;;;23.42;53.13;101007.53;4972739;28;122701;-62
2023/06/19 05:34:12;;;;;;;7.20;4.68;;;;;;;23.44;53.13;101010.94;5003580;28;115289;-63
2023/06/19 05:36:39;;;;;;;7.13;4.78;;;;;;;23.44;53.21;101019.03;4990888;28;114936;-63
2023/06/19 05:39:07;;;;;;;8.63;4.82;;;;;;;23.44;53.28;101010.94;4994250;28;124392;-63
2023/06/19 05:41:34;;;;;;;7.00;4.70;;;;;;;23.46;53.23;101014.34;5010069;28;123789;-63
2023/06/19 05:44:01;;;;;;;6.55;4.38;;;;;;;23.48;53.23;101012.34;4989120;28;114925;-63
2023/06/19 05:46:28;;;;;;;6.55;4.25;;;;;;;23.52;53.16;101008.31;4973737;28;112928;-63
2023/06/19 05:48:56;;;;;;;6.30;4.10;;;;;;;23.55;53.37;101015.31;4972736;28;124249;-64
2023/06/19 05:51:23;;;;;;;9.60;4.75;;;;;;;23.60;53.34;101020.25;4958918;28;123786;-64
2023/06/19 05:53:51;;;;;;;8.55;4.55;;;;;;;23.65;53.32;101028.78;4995103;28;114330;-65
2023/06/19 05:56:19;;;;;;;7.47;4.97;;;;;;;23.68;53.31;101028.50;4986102;28;114092;-63
2023/06/19 05:58:46;;;;;;;6.90;4.22;;;;;;;23.69;53.22;101030.19;4969839;28;124119;-63
2023/06/19 06:01:13;;;;;;;7.93;4.55;;;;;;;23.72;53.16;101029.88;4987677;28;123832;-63
2023/06/19 06:03:41;;;;;;;5.85;4.57;;;;;;;23.73;53.43;101031.56;4975877;28;114846;-63
2023/06/19 06:06:09;;;;;;;6.75;4.72;;;;;;;23.77;53.36;101033.00;4972703;28;115386;-62
2023/06/19 06:08:36;;;;;;;7.50;5.03;;;;;;;23.79;53.34;101031.03;4971755;28;123198;-63
2023/06/19 06:11:03;;;;;;;5.13;4.60;;;;;;;23.81;53.39;101028.13;4984398;28;123743;-62
2023/06/19 06:13:31;;;;;;;6.38;5.03;;;;;;;23.83;53.22;101026.16;4953137;28;114026;-63
2023/06/19 06:15:58;;;;;;;7.28;4.68;;;;;;;23.89;53.24;101025.56;4971649;28;114416;-63
2023/06/19 06:18:25;;;;;;;7.28;4.95;;;;;;;23.94;53.40;101038.59;4968431;28;124048;-62
2023/06/19 06:20:52;;;;;;;7.22;4.80;;;;;;;23.97;53.39;101038.31;4980334;28;124261;-63
2023/06/19 06:23:20;;;;;;;7.30;4.70;;;;;;;24.01;53.17;101034.28;4984991;28;115252;-63
2023/06/19 06:25:47;;;;;;;7.22;4.50;;;;;;;24.03;53.29;101040.41;4986489;28;114925;-62
2023/06/19 06:28:15;;;;;;;6.60;4.70;;;;;;;24.07;53.13;101044.50;4977503;28;124905;-62
2023/06/19 06:30:42;;;;;;;7.93;5.05;;;;;;;24.14;53.31;101051.00;4988772;28;123872;-62
2023/06/19 06:33:10;;;;;;;7.28;5.28;;;;;;;24.22;53.22;101050.25;4971544;28;116188;-62
2023/06/19 06:35:37;;;;;;;6.88;4.93;;;;;;;24.29;53.21;101060.31;4979184;28;114367;-63
2023/06/19 06:38:04;;;;;;;7.53;5.57;;;;;;;24.38;53.08;101065.81;4994628;28;124550;-63
2023/06/19 06:40:32;;;;;;;8.88;5.10;;;;;;;24.44;52.78;101070.63;4973638;28;122827;-63
2023/06/19 06:42:59;;;;;;;8.98;4.97;;;;;;;24.47;52.58;101064.91;4973662;28;114637;-63
2023/06/19 06:45:26;;;;;;;8.23;5.43;;;;;;;24.50;52.48;101072.69;4980814;28;113631;-63
2023/06/19 06:47:54;;;;;;;7.38;5.70;;;;;;;24.57;52.48;101073.81;4972372;28;124161;-63
2023/06/19 06:50:21;;;;;;;7.18;5.57;;;;;;;24.68;52.22;101081.72;4983992;28;124258;-63
2023/06/19 06:52:49;;;;;;;6.80;5.30;;;;;;;24.77;52.06;101076.34;4988641;28;114896;-63
2023/06/19 06:55:17;;;;;;;6.47;5.72;;;;;;;24.85;52.14;101076.44;4989342;28;114048;-63
2023/06/19 06:57:44;;;;;;;7.20;5.25;;;;;;;24.96;51.93;101078.91;4991819;28;124288;-63
2023/06/19 07:00:12;;;;;;;7.70;4.78;;;;;;;25.09;51.51;101083.03;4971882;28;123797;-63
2023/06/19 07:02:40;;;;;;;7.15;5.05;;;;;;;25.17;51.69;101096.66;4982657;28;113969;-63
2023/06/19 07:05:08;;;;;;;9.18;6.32;;;;;;;25.26;51.38;101101.19;4971766;28;112879;-62
2023/06/19 07:07:36;;;;;;;8.07;5.90;;;;;;;25.35;50.92;101094.78;4985874;28;124109;-63
2023/06/19 07:10:03;;;;;;;7.60;5.55;;;;;;;25.44;50.97;101099.25;4982621;28;124561;-63
2023/06/19 07:12:31;;;;;;;6.80;5.43;;;;;;;25.57;51.05;101103.38;4981475;28;115393;-63
2023/06/19 07:14:58;;;;;;;7.10;5.82;;;;;;;25.66;50.66;101099.72;4986374;28;114894;-62
2023/06/19 07:17:25;;;;;;;8.05;6.15;;;;;;;25.72;50.38;101101.78;4990357;28;124664;-63
2023/06/19 07:19:52;;;;;;;7.45;5.63;;;;;;;25.75;49.94;101106.00;4983777;28;124275;-63
2023/06/19 07:22:20;;;;;;;7.70;5.70;;;;;;;25.79;49.64;101113.69;4985685;28;113385;-63
2023/06/19 07:24:47;;;;;;;8.52;6.18;;;;;;;25.81;49.62;101117.09;4992107;28;114666;-63
2023/06/19 07:27:14;;;;;;;8.82;6.65;;;;;;;25.81;49.30;101121.66;4985974;28;124347;-63
2023/06/19 07:29:43;;;;;;;8.35;6.85;;;;;;;25.83;49.41;101125.06;4978319;28;124265;-63
2023/06/19 07:32:11;;;;;;;8.00;7.10;;;;;;;25.89;48.59;101123.56;4977584;28;114204;-63
2023/06/19 07:34:38;;;;;;;11.38;7.13;;;;;;;25.93;48.70;101114.09;4981675;28;113862;-63
2023/06/19 07:37:05;;;;;;;9.60;7.13;;;;;;;25.97;48.45;101115.47;4986127;28;123895;-62
2023/06/19 07:39:33;;;;;;;9.07;8.13;;;;;;;26.03;48.44;101117.53;4974437;28;122977;-62
2023/06/19 07:42:00;;;;;;;9.82;7.53;;;;;;;26.12;48.35;101118.44;4987746;28;114778;-63
2023/06/19 07:44:27;;;;;;;10.88;9.35;;;;;;;26.25;48.08;101129.66;4989507;28;114043;-62
2023/06/19 07:46:54;;;;;;;10.73;9.63;;;;;;;26.35;47.93;101129.53;4985381;28;124835;-63
2023/06/19 07:49:21;;;;;;;10.88;8.90;;;;;;;26.43;47.58;101132.28;4991029;28;124285;-62
2023/06/19 07:51:49;;;;;;;10.43;9.18;;;;;;;26.52;47.23;101136.72;5000750;28;114244;-62
2023/06/19 07:54:16;;;;;;;9.70;8.80;;;;;;;26.61;47.04;101138.44;4998046;28;114180;-62
2023/06/19 07:56:43;;;;;;;8.73;7.82;;;;;;;26.68;47.16;101135.06;4990515;28;123914;-62
2023/06/19 07:59:11;;;;;;;9.60;8.60;;;;;;;26.76;47.20;101137.78;4971227;28;123743;-62
2023/06/19 08:01:38;;;;;;;11.73;8.90;;;;;;;26.86;46.65;101138.50;4988527;28;115350;-62
2023/06/19 08:04:06;;;;;;;10.38;8.90;;;;;;;26.94;46.40;101146.63;4990763;28;115605;-62
2023/06/19 08:06:33;;;;;;;10.93;8.82;;;;;;;26.98;46.04;101139.84;4984674;28;124454;-62
2023/06/19 08:09:00;;;;;;;11.98;9.30;;;;;;;26.99;45.82;101127.97;4982862;28;123825;-62
2023/06/19 08:11:27;;;;;;;10.55;8.48;;;;;;;26.98;45.39;101131.69;4984362;28;113996;-62
2023/06/19 08:13:56;;;;;;;10.93;8.82;;;;;;;26.96;45.53;101128.28;4981383;28;113649;-62
2023/06/19 08:16:25;;;;;;;12.18;8.73;;;;;;;26.97;45.18;101135.44;4988768;28;124417;-63
2023/06/19 08:18:53;;;;;;;8.98;8.07;;;;;;;26.96;45.74;101128.28;5001149;28;123802;-62
2023/06/19 08:21:21;;;;;;;9.80;8.40;;;;;;;26.93;45.09;101133.22;4988991;28;114600;-62
2023/06/19 08:23:48;;;;;;;10.98;9.02;;;;;;;26.90;45.69;101145.28;4989205;28;113677;-62
2023/06/19 08:26:15;;;;;;;10.73;8.95;;;;;;;26.93;45.26;101144.94;4977224;28;124073;-63
2023/06/19 08:28:42;;;;;;;10.52;9.07;;;;;;;27.02;45.40;101147.66;4988922;28;124667;-61
2023/06/19 08:31:10;;;;;;;12.25;9.55;;;;;;;27.14;45.07;101146.28;4991127;28;115362;-62
2023/06/19 08:33:37;;;;;;;10.45;9.18;;;;;;;27.24;44.75;101148.84;4981912;28;114033;-62
2023/06/19 08:36:05;;;;;;;11.25;9.00;;;;;;;27.31;45.00;101142.59;4992964;28;123360;-62
2023/06/19 08:38:32;;;;;;;9.68;8.68;;;;;;;27.36;44.83;101145.63;4962978;28;122917;-61
2023/06/19 08:40:59;;;;;;;12.55;9.52;;;;;;;27.42;44.63;101154.13;4974145;28;113870;-62
2023/06/19 08:43:27;;;;;;;10.23;8.65;;;;;;;27.48;44.33;101148.00;4980069;28;115278;-62
2023/06/19 08:46:08;;;;;;;11.07;9.02;;;;;;;27.51;44.38;101147.66;4985365;28;123917;-63
2023/06/19 08:48:36;;;;;;;10.32;8.88;;;;;;;27.56;44.11;101154.28;4977532;28;123945;-62
2023/06/19 08:51:06;;;;;;;11.27;9.05;;;;;;;27.60;44.18;101151.22;4982155;28;115290;-62
2023/06/19 08:53:35;;;;;;;14.27;9.48;;;;;;;27.63;43.67;101159.03;4973074;28;114335;-62
2023/06/19 08:56:05;;;;;;;13.95;8.45;;;;;;;27.63;43.69;101153.56;4973728;28;123362;-62
2023/06/19 08:58:32;;;;;;;11.85;8.45;;;;;;;27.65;43.32;101163.28;4956257;28;123772;-63
2023/06/19 09:00:59;;;;;;;11.15;8.63;;;;;;;27.68;43.17;101165.63;4984767;28;115657;-62
2023/06/19 09:03:27;;;;;;;10.38;8.27;;;;;;;27.67;43.14;101163.97;4976952;28;113815;-62
2023/06/19 09:05:54;;;;;;;10.52;9.43;;;;;;;27.69;43.34;101174.66;4967467;28;124543;-62
2023/06/19 09:08:23;;;;;;;12.38;8.73;;;;;;;27.69;42.94;101183.69;4972870;28;123016;-62
2023/06/19 09:10:57;;;;;;;11.60;8.30;;;;;;;27.67;42.89;101180.28;4983757;28;113444;-61
2023/06/19 09:13:24;;;;;;;10.23;8.38;;;;;;;27.67;43.67;101179.41;4976203;28;114244;-62
2023/06/19 09:16:12;;;;;;;9.95;8.07;;;;;;;27.73;43.64;101184.19;4972958;28;123265;-62
2023/06/19 09:18:45;;;;;;;9.80;7.63;;;;;;;27.82;43.37;101187.72;4986524;28;123777;-62
2023/06/19 09:21:21;;;;;;;8.70;7.75;;;;;;;27.84;43.30;101186.53;4958071;28;114632;-66
2023/06/19 09:23:51;;;;;;;9.02;7.40;;;;;;;27.88;42.97;101176.16;4989487;28;114013;-62
2023/06/19 09:26:25;;;;;;;12.55;8.30;;;;;;;27.92;43.09;101183.81;4961276;28;123278;-61
2023/06/19 09:28:52;;;;;;;8.48;7.57;;;;;;;27.93;42.87;101184.66;4953552;28;122843;-62
2023/06/19 09:31:19;;;;;;;11.35;7.95;;;;;;;27.97;43.21;101180.56;4972845;28;114090;-61
2023/06/19 09:33:47;;;;;;;9.60;7.70;;;;;;;28.03;43.15;101185.31;4972456;28;113095;-61
2023/06/19 09:36:14;;;;;;;9.90;7.45;;;;;;;28.08;42.65;101193.78;4987530;28;124159;-62
2023/06/19 09:38:41;;;;;;;10.63;6.68;;;;;;;28.06;42.38;101201.28;4987678;28;124255;-62
2023/06/19 09:41:12;;;;;;;10.57;6.97;;;;;;;28.03;42.04;101201.66;4984793;28;115402;-62
2023/06/19 09:43:43;;;;;;;11.85;6.55;;;;;;;28.02;41.96;101199.94;4992273;28;115317;-62
2023/06/19 09:46:14;;;;;;;9.68;6.70;;;;;;;28.06;42.38;101201.28;4975951;28;123225;-62
2023/06/19 09:48:43;;;;;;;10.35;7.60;;;;;;;28.14;42.07;101204.00;4992089;28;124233;-61
2023/06/19 09:51:19;;;;;;;9.48;7.25;;;;;;;28.22;42.06;101199.53;4982453;28;114281;-61
2023/06/19 09:53:49;;;;;;;11.95;8.20;;;;;;;28.31;42.16;101209.38;4982821;28;113048;-60
2023/06/19 09:56:21;;;;;;;10.10;7.38;;;;;;;28.43;42.41;101202.50;4982032;28;124489;-62
2023/06/19 09:58:51;;;;;;;9.23;6.88;;;;;;;28.54;42.04;101210.31;4983955;28;124709;-61
2023/06/19 10:01:19;;;;;;;9.43;6.88;;;;;;;28.65;41.97;101210.94;4971542;28;113117;-62
2023/06/19 10:03:46;;;;;;;11.80;7.07;;;;;;;28.73;41.63;101209.03;4976418;28;114443;-61
2023/06/19 10:06:15;;;;;;;14.65;7.72;;;;;;;28.81;40.97;101210.84;4958838;28;124012;-60
2023/06/19 10:08:44;;;;;;;8.18;6.90;;;;;;;28.85;41.05;101212.19;4987957;28;124026;-62
2023/06/19 10:11:13;;;;;;;10.65;7.80;;;;;;;28.90;40.87;101209.75;4980193;28;114699;-62
2023/06/19 10:13:42;;;;;;;9.63;7.25;;;;;;;28.98;40.99;101211.59;4987847;28;114635;-62
2023/06/19 10:16:22;;;;;;;7.97;7.15;;;;;;;29.02;40.93;101201.16;4968164;28;124506;-62
2023/06/19 10:18:50;;;;;;;37.28;12.05;;;;;;;29.04;40.68;101199.94;4979413;28;123724;-62
2023/06/19 10:21:19;;;;;;;48.47;11.02;;;;;;;29.08;40.21;101203.16;4963712;28;113135;-63
2023/06/19 10:24:04;;;;;;;8.40;7.03;;;;;;;29.10;40.51;101207.41;4978960;28;113855;-63
2023/06/19 10:26:33;;;;;;;7.72;6.82;;;;;;;29.15;40.19;101206.88;4986475;28;123941;-63
2023/06/19 10:29:04;;;;;;;8.85;6.90;;;;;;;29.20;40.38;101203.63;4990940;28;124107;-63
2023/06/19 10:31:31;;;;;;;10.20;7.00;;;;;;;29.25;40.12;101210.22;4990959;28;115428;-62
2023/06/19 10:33:59;;;;;;;10.23;7.15;;;;;;;29.33;39.92;101213.91;4983022;28;115022;-62
2023/06/19 10:36:26;;;;;;;9.15;6.78;;;;;;;29.39;39.89;101218.66;4971100;28;124898;-63
2023/06/19 10:38:54;;;;;;;9.07;7.50;;;;;;;29.46;39.82;101209.53;4991320;28;123767;-63
2023/06/19 10:41:24;;;;;;;8.60;6.88;;;;;;;29.57;39.58;101205.47;4997203;28;114593;-61
2023/06/19 10:44:06;;;;;;;8.52;6.78;;;;;;;29.66;39.47;101209.84;5001482;28;113753;-61
2023/06/19 10:46:36;;;;;;;8.05;6.80;;;;;;;29.73;39.15;101214.56;4990974;28;124171;-62
2023/06/19 10:49:05;;;;;;;10.38;6.63;;;;;;;29.76;38.97;101204.16;4999879;28;124986;-62
2023/06/19 10:51:38;;;;;;;8.68;7.07;;;;;;;29.85;39.13;101202.16;4987593;28;114579;-63
2023/06/19 10:54:06;;;;;;;8.50;6.35;;;;;;;29.93;39.07;101204.81;4988953;28;113798;-63
2023/06/19 10:56:34;;;;;;;9.02;6.13;;;;;;;30.02;38.55;101211.88;4974729;28;122957;-63
2023/06/19 10:59:03;;;;;;;10.60;6.38;;;;;;;30.11;38.19;101209.06;4977830;28;124595;-63
2023/06/19 11:01:41;;;;;;;8.70;5.85;;;;;;;30.16;37.72;101203.84;4976360;28;114026;-63
2023/06/19 11:04:10;;;;;;;8.48;6.35;;;;;;;30.21;37.86;101202.25;4981686;28;114409;-62
2023/06/19 11:06:39;;;;;;;10.55;6.75;;;;;;;30.27;37.39;101200.63;4965112;28;124719;-63
2023/06/19 11:09:08;;;;;;;9.15;6.95;;;;;;;30.29;37.31;101204.06;4990701;28;123857;-62
2023/06/19 11:11:40;;;;;;;13.00;6.32;;;;;;;30.24;36.93;101206.50;4994091;28;114991;-63
2023/06/19 11:14:09;;;;;;;8.80;6.50;;;;;;;30.19;37.19;101208.94;4984679;28;114032;-62
2023/06/19 11:16:41;;;;;;;9.88;6.20;;;;;;;30.14;36.92;101205.94;4988259;28;125073;-62
2023/06/19 11:19:15;;;;;;;9.45;6.57;;;;;;;30.12;36.99;101208.00;4987449;28;123830;-62
2023/06/19 11:21:46;;;;;;;9.55;6.38;;;;;;;30.13;37.19;101206.97;4973476;28;115292;-62
2023/06/19 11:24:14;;;;;;;8.18;6.65;;;;;;;30.16;36.65;101203.84;4988823;28;115368;-61